Time;durP1;ratioP1;P1;durP2;ratioP2;P2;SDS_P1;SDS_P2;PMS_P1;PMS_P2;Temp;Humidity;BMP_temperature;BMP_pressure;BME280_temperature;BME280_humidity;BME280_pressure;Samples;Min_cycle;Max_cycle;Signal;HPM_P1;HPM_P2
2021/10/30 00:00:18;;;;;;;21.60;11.12;;;;;;;8.49;57.53;100421.86;1677219;85;21063;-77
2021/10/30 00:02:46;;;;;;;17.73;10.08;;;;;;;8.47;57.59;100419.87;1677241;85;21019;-77
2021/10/30 00:05:12;;;;;;;16.35;11.45;;;;;;;8.46;57.68;100420.36;1677240;85;21122;-77
2021/10/30 00:07:39;;;;;;;17.75;10.93;;;;;;;8.46;57.72;100419.52;1701918;84;21168;-77
2021/10/30 00:10:06;;;;;;;16.95;9.35;;;;;;;8.46;57.78;100417.70;1702768;84;21527;-77
2021/10/30 00:12:33;;;;;;;16.17;9.48;;;;;;;8.45;57.84;100420.50;1702540;84;21043;-77
2021/10/30 00:14:59;;;;;;;17.20;10.70;;;;;;;8.45;57.90;100422.67;1702823;84;21018;-77
2021/10/30 00:17:25;;;;;;;19.62;10.35;;;;;;;8.44;57.98;100415.67;1702751;84;21113;-77
2021/10/30 00:19:51;;;;;;;17.65;9.83;;;;;;;8.42;58.03;100413.68;1702799;84;21003;-77
2021/10/30 00:22:17;;;;;;;17.92;10.80;;;;;;;8.37;58.07;100415.95;1702580;84;21026;-77
2021/10/30 00:24:43;;;;;;;19.57;10.63;;;;;;;8.34;58.15;100418.93;1702778;84;21065;-77
2021/10/30 00:27:10;;;;;;;19.62;10.82;;;;;;;8.36;58.20;100416.13;1702619;84;21027;-77
2021/10/30 00:29:40;;;;;;;23.73;10.98;;;;;;;8.36;58.25;100417.45;1702977;84;21168;-77
2021/10/30 00:32:07;;;;;;;17.20;11.60;;;;;;;8.37;58.31;100412.50;1702804;84;21071;-77
2021/10/30 00:34:33;;;;;;;15.72;10.05;;;;;;;8.35;58.37;100414.45;1702757;84;21007;-77
2021/10/30 00:36:59;;;;;;;15.55;10.25;;;;;;;8.30;58.40;100410.92;1702801;84;21027;-77
2021/10/30 00:39:25;;;;;;;21.77;12.73;;;;;;;8.22;58.49;100421.48;1702865;84;21034;-77
2021/10/30 00:41:53;;;;;;;18.12;10.98;;;;;;;8.16;58.58;100426.09;1702600;84;21126;-77
2021/10/30 00:44:20;;;;;;;20.08;11.10;;;;;;;8.14;58.65;100421.89;1702567;84;21011;-77
2021/10/30 00:46:49;;;;;;;20.25;11.20;;;;;;;8.16;58.74;100427.41;1702867;84;21146;-77
2021/10/30 00:49:16;;;;;;;16.55;11.10;;;;;;;8.11;58.78;100423.05;1702393;83;21067;-76
2021/10/30 00:51:44;;;;;;;20.23;11.85;;;;;;;8.10;58.84;100428.50;1702945;84;21477;-76
2021/10/30 00:54:13;;;;;;;17.23;10.25;;;;;;;8.08;58.92;100430.48;1702732;84;21144;-77
2021/10/30 00:56:41;;;;;;;19.85;12.45;;;;;;;8.07;59.00;100426.98;1702514;84;21030;-77
2021/10/30 00:59:11;;;;;;;21.37;12.50;;;;;;;8.08;59.07;100427.34;1702823;84;21445;-76
2021/10/30 01:01:39;;;;;;;18.25;11.18;;;;;;;8.07;59.14;100417.70;1702827;84;21525;-77
2021/10/30 01:04:06;;;;;;;30.57;15.38;;;;;;;8.08;59.23;100415.88;1701423;84;21042;-77
2021/10/30 01:06:33;;;;;;;31.82;12.30;;;;;;;8.09;59.29;100415.73;1702491;84;22021;-77
2021/10/30 01:08:59;;;;;;;20.17;10.95;;;;;;;8.07;59.36;100420.34;1702488;84;21082;-77
2021/10/30 01:11:25;;;;;;;20.57;10.35;;;;;;;8.08;59.45;100414.55;1702575;84;21015;-77
2021/10/30 01:13:52;;;;;;;19.80;10.80;;;;;;;8.11;59.51;100409.77;1702780;84;21067;-77
2021/10/30 01:16:19;;;;;;;31.80;10.72;;;;;;;8.15;59.56;100409.80;1702752;84;21562;-77
2021/10/30 01:18:45;;;;;;;17.92;10.72;;;;;;;8.18;59.64;100409.48;1702441;84;21185;-77
2021/10/30 01:21:12;;;;;;;22.95;11.75;;;;;;;8.21;59.69;100401.20;1702424;84;20963;-76
2021/10/30 01:23:38;;;;;;;15.48;11.38;;;;;;;8.27;59.76;100399.25;1702628;84;21006;-76
2021/10/30 01:26:04;;;;;;;16.77;10.00;;;;;;;8.30;59.81;100393.66;1702791;84;21661;-77
2021/10/30 01:28:32;;;;;;;13.83;10.50;;;;;;;8.34;59.86;100400.33;1702675;84;21007;-77
2021/10/30 01:30:58;;;;;;;16.52;10.10;;;;;;;8.38;59.91;100401.69;1702719;84;21161;-76
2021/10/30 01:33:24;;;;;;;14.73;10.25;;;;;;;8.42;59.96;100403.05;1702847;84;21102;-77
2021/10/30 01:35:50;;;;;;;18.12;10.60;;;;;;;8.40;59.99;100401.06;1702790;84;21504;-77
2021/10/30 01:38:17;;;;;;;16.50;10.80;;;;;;;8.37;60.04;100398.69;1703121;84;21507;-77
2021/10/30 01:40:46;;;;;;;14.73;9.95;;;;;;;8.35;60.09;100397.19;1702320;84;21074;-77
2021/10/30 01:43:12;;;;;;;17.55;10.35;;;;;;;8.29;60.14;100401.80;1702595;84;21849;-77
2021/10/30 01:45:39;;;;;;;16.27;10.45;;;;;;;8.24;60.20;100400.89;1702386;84;21058;-77
2021/10/30 01:48:05;;;;;;;18.98;10.23;;;;;;;8.24;60.27;100399.56;1702430;83;21063;-77
2021/10/30 01:50:31;;;;;;;14.15;9.75;;;;;;;8.22;60.35;100400.23;1702905;84;20995;-77
2021/10/30 01:52:59;;;;;;;19.95;11.90;;;;;;;8.26;60.40;100400.27;1702598;84;21562;-77
2021/10/30 01:55:27;;;;;;;20.52;11.97;;;;;;;8.29;60.43;100393.34;1702702;84;21184;-77
2021/10/30 01:57:53;;;;;;;19.32;10.85;;;;;;;8.28;60.48;100395.65;1702559;84;21067;-76
2021/10/30 02:00:19;;;;;;;17.23;10.82;;;;;;;8.29;60.55;100400.47;1702599;84;21358;-77
2021/10/30 02:02:45;;;;;;;17.52;11.20;;;;;;;8.34;60.60;100393.69;1702605;84;21558;-76
2021/10/30 02:05:12;;;;;;;17.45;10.78;;;;;;;8.35;60.64;100395.36;1702832;84;21002;-77
2021/10/30 02:07:38;;;;;;;18.73;11.12;;;;;;;8.36;60.69;100398.37;1702530;84;21151;-77
2021/10/30 02:10:06;;;;;;;20.65;11.33;;;;;;;8.37;60.72;100394.70;1702265;84;21035;-77
2021/10/30 02:12:33;;;;;;;17.30;11.03;;;;;;;8.36;60.77;100387.74;1702797;84;21015;-77
2021/10/30 02:14:59;;;;;;;22.20;11.80;;;;;;;8.36;60.81;100387.74;1702530;84;21587;-77
2021/10/30 02:17:25;;;;;;;19.85;12.50;;;;;;;8.33;60.86;100390.71;1702851;84;21062;-77
2021/10/30 02:19:51;;;;;;;16.25;11.78;;;;;;;8.34;60.91;100392.36;1702937;84;21135;-77
2021/10/30 02:22:17;;;;;;;24.02;11.08;;;;;;;8.34;60.94;100391.03;1702529;84;21160;-76
2021/10/30 02:24:45;;;;;;;21.30;11.45;;;;;;;8.36;60.97;100382.42;1701253;84;21023;-77
2021/10/30 02:27:13;;;;;;;18.75;11.78;;;;;;;8.38;61.00;100384.42;1702227;84;21014;-77
2021/10/30 02:29:39;;;;;;;19.92;10.70;;;;;;;8.39;61.06;100378.61;1703200;84;20975;-76
2021/10/30 02:32:06;;;;;;;22.50;12.40;;;;;;;8.38;61.08;100384.42;1702625;84;21237;-77
2021/10/30 02:34:32;;;;;;;20.00;12.25;;;;;;;8.37;61.12;100388.05;1702953;84;21015;-77
2021/10/30 02:36:58;;;;;;;23.10;12.30;;;;;;;8.32;61.16;100393.02;1702795;84;21058;-76
2021/10/30 02:39:24;;;;;;;19.87;11.22;;;;;;;8.25;61.22;100395.93;1702746;84;21062;-77
2021/10/30 02:41:50;;;;;;;18.75;12.45;;;;;;;8.16;61.27;100392.89;1702953;84;21073;-77
2021/10/30 02:44:16;;;;;;;15.43;10.53;;;;;;;8.11;61.33;100403.61;1702889;84;21157;-77
2021/10/30 02:46:42;;;;;;;16.17;11.25;;;;;;;8.05;61.39;100399.77;1703052;84;21702;-77
2021/10/30 02:49:08;;;;;;;18.32;11.83;;;;;;;8.01;61.44;100393.09;1702739;83;21006;-77
2021/10/30 02:51:34;;;;;;;20.48;12.25;;;;;;;7.96;61.46;100392.21;1703053;84;21607;-77
2021/10/30 02:54:00;;;;;;;18.48;12.58;;;;;;;7.89;61.53;100395.14;1702645;84;21014;-77
2021/10/30 02:56:26;;;;;;;19.50;12.58;;;;;;;7.82;61.61;100388.77;1702889;84;21591;-76
2021/10/30 02:58:53;;;;;;;23.07;13.60;;;;;;;7.76;61.66;100389.87;1702847;84;20999;-77
2021/10/30 03:01:19;;;;;;;21.00;13.88;;;;;;;7.74;61.71;100388.69;1702793;84;20999;-77
2021/10/30 03:03:45;;;;;;;17.50;12.63;;;;;;;7.72;61.76;100393.81;1702791;84;21030;-77
2021/10/30 03:06:11;;;;;;;21.17;12.82;;;;;;;7.67;61.82;100395.59;1702349;83;21071;-76
2021/10/30 03:08:38;;;;;;;23.45;13.55;;;;;;;7.62;61.90;100395.22;1677347;85;21152;-77
2021/10/30 03:11:04;;;;;;;21.35;12.47;;;;;;;7.57;61.97;100399.30;1676993;85;21027;-77
2021/10/30 03:13:30;;;;;;;19.12;11.85;;;;;;;7.56;62.05;100398.98;1677196;85;21066;-76
2021/10/30 03:15:56;;;;;;;22.95;14.25;;;;;;;7.54;62.09;100398.62;1677131;85;21055;-77
2021/10/30 03:18:22;;;;;;;21.85;13.18;;;;;;;7.51;62.18;100389.64;1677144;85;21125;-76
2021/10/30 03:20:49;;;;;;;19.52;12.75;;;;;;;7.56;62.25;100392.34;1677295;85;21059;-77
2021/10/30 03:23:15;;;;;;;19.65;13.08;;;;;;;7.56;62.29;100395.00;1677236;85;21031;-76
2021/10/30 03:25:41;;;;;;;23.62;14.20;;;;;;;7.52;62.39;100396.63;1677385;85;21453;-77
2021/10/30 03:28:07;;;;;;;20.88;12.00;;;;;;;7.56;62.43;100400.30;1677002;85;21030;-76
2021/10/30 03:30:34;;;;;;;20.20;12.78;;;;;;;7.52;62.51;100400.61;1677244;85;21066;-77
2021/10/30 03:33:00;;;;;;;28.07;12.45;;;;;;;7.56;62.58;100406.94;1677008;85;21290;-77
2021/10/30 03:35:26;;;;;;;24.45;12.93;;;;;;;7.53;62.64;100407.56;1676954;85;21087;-77
2021/10/30 03:37:52;;;;;;;17.35;11.68;;;;;;;7.49;62.70;100407.52;1677120;85;20995;-77
2021/10/30 03:40:18;;;;;;;24.45;12.70;;;;;;;7.45;62.76;100405.33;1677071;85;21535;-76
2021/10/30 03:42:44;;;;;;;23.83;13.08;;;;;;;7.40;62.83;100411.08;1677186;85;21484;-77
2021/10/30 03:45:10;;;;;;;17.35;13.20;;;;;;;7.34;62.88;100409.03;1676997;85;21122;-77
2021/10/30 03:47:36;;;;;;;21.48;12.47;;;;;;;7.32;62.97;100416.28;1677211;84;21196;-77
2021/10/30 03:50:02;;;;;;;23.42;13.53;;;;;;;7.26;63.02;100412.91;1676968;85;21023;-77
2021/10/30 03:52:28;;;;;;;20.80;12.28;;;;;;;7.17;63.09;100408.50;1677290;85;21043;-76
2021/10/30 03:54:55;;;;;;;22.73;13.75;;;;;;;7.10;63.17;100407.42;1676904;85;21547;-76
2021/10/30 03:57:21;;;;;;;25.82;14.38;;;;;;;7.03;63.26;100412.48;1677329;85;21014;-77
2021/10/30 03:59:47;;;;;;;21.05;13.10;;;;;;;6.96;63.33;100407.91;1676848;85;21551;-76
2021/10/30 04:02:14;;;;;;;25.60;14.23;;;;;;;6.97;63.40;100401.61;1677226;85;21034;-77
2021/10/30 04:04:40;;;;;;;20.32;14.05;;;;;;;6.94;63.47;100400.58;1677232;85;20991;-77
2021/10/30 04:07:06;;;;;;;21.55;12.88;;;;;;;6.96;63.54;100401.28;1683359;84;21026;-76
2021/10/30 04:09:32;;;;;;;19.40;13.62;;;;;;;6.94;63.62;100399.25;1702791;84;21249;-76
2021/10/30 04:11:58;;;;;;;22.15;14.60;;;;;;;6.96;63.69;100399.95;1702757;84;21488;-76
2021/10/30 04:14:24;;;;;;;18.12;13.30;;;;;;;7.00;63.76;100403.98;1702646;84;21225;-76
2021/10/30 04:16:50;;;;;;;24.32;14.60;;;;;;;7.01;63.84;100399.84;1702790;84;21011;-76
2021/10/30 04:19:16;;;;;;;23.10;14.45;;;;;;;7.03;63.91;100398.39;1702430;84;21321;-76
2021/10/30 04:21:43;;;;;;;20.88;12.45;;;;;;;7.01;63.96;100397.69;1702830;84;21140;-76
2021/10/30 04:24:09;;;;;;;28.20;13.75;;;;;;;7.00;64.06;100402.66;1702584;84;20998;-76
2021/10/30 04:26:35;;;;;;;21.00;13.68;;;;;;;7.01;64.13;100405.64;1702898;84;21561;-76
2021/10/30 04:29:02;;;;;;;24.77;14.05;;;;;;;7.05;64.20;100399.06;1702329;84;21499;-76
2021/10/30 04:31:29;;;;;;;19.10;13.43;;;;;;;7.05;64.25;100395.09;1696287;83;21084;-76
2021/10/30 04:34:02;;;;;;;23.67;13.85;;;;;;;7.01;64.30;100396.36;1704991;83;21104;-76
2021/10/30 04:36:26;;;;;;;21.87;14.90;;;;;;;7.00;64.37;100397.36;1706820;83;21087;-76
2021/10/30 04:38:52;;;;;;;23.98;15.13;;;;;;;6.96;64.43;100388.03;1716705;83;21060;-76
2021/10/30 04:41:18;;;;;;;22.98;14.83;;;;;;;6.91;64.46;100391.59;1719429;82;21015;-76
2021/10/30 04:43:45;;;;;;;23.77;14.15;;;;;;;6.90;64.54;100393.41;1713546;82;21152;-76
2021/10/30 04:46:14;;;;;;;21.73;14.30;;;;;;;6.87;64.60;100394.19;1714274;83;21822;-76
2021/10/30 04:48:40;;;;;;;26.45;15.25;;;;;;;6.85;64.62;100392.19;1707850;82;21068;-76
2021/10/30 04:51:06;;;;;;;21.90;14.87;;;;;;;6.84;64.68;100389.19;1705966;83;21019;-76
2021/10/30 04:53:34;;;;;;;21.52;14.07;;;;;;;6.81;64.73;100389.48;1685141;83;21071;-76
2021/10/30 04:56:02;;;;;;;28.10;14.63;;;;;;;6.78;64.78;100380.50;1696764;83;21017;-76
2021/10/30 04:58:28;;;;;;;22.73;14.63;;;;;;;6.73;64.79;100380.09;1715361;83;21196;-76
2021/10/30 05:00:54;;;;;;;26.87;14.38;;;;;;;6.67;64.88;100378.88;1715566;83;21048;-76
2021/10/30 05:03:20;;;;;;;24.00;14.90;;;;;;;6.62;64.94;100373.64;1715575;83;21525;-76
2021/10/30 05:05:46;;;;;;;22.67;13.48;;;;;;;6.56;65.00;100379.53;1715465;83;21080;-76
2021/10/30 05:08:12;;;;;;;22.75;14.45;;;;;;;6.53;65.07;100372.23;1723962;82;21573;-76
2021/10/30 05:10:38;;;;;;;24.40;14.95;;;;;;;6.50;65.12;100373.84;1731670;82;21563;-76
2021/10/30 05:13:04;;;;;;;25.23;14.58;;;;;;;6.47;65.22;100372.79;1732873;82;21075;-76
2021/10/30 05:15:32;;;;;;;30.72;21.17;;;;;;;6.46;65.27;100380.41;1701247;84;21094;-76
2021/10/30 05:17:59;;;;;;;31.60;21.33;;;;;;;6.49;65.34;100377.47;1728539;83;21003;-76
2021/10/30 05:20:27;;;;;;;29.25;19.75;;;;;;;6.45;65.43;100382.70;1709675;83;21029;-76
2021/10/30 05:22:53;;;;;;;35.28;21.27;;;;;;;6.40;65.50;100390.23;1709894;83;21069;-76
2021/10/30 05:25:19;;;;;;;25.65;17.02;;;;;;;6.34;65.57;100391.30;1709949;83;21045;-75
2021/10/30 05:27:45;;;;;;;27.75;16.27;;;;;;;6.25;65.66;100389.03;1733065;81;21000;-76
2021/10/30 05:30:11;;;;;;;23.52;15.93;;;;;;;6.15;65.75;100385.58;1753029;81;20991;-76
2021/10/30 05:32:37;;;;;;;30.88;15.98;;;;;;;6.06;65.84;100394.34;1735210;82;21036;-76
2021/10/30 05:35:03;;;;;;;26.75;16.25;;;;;;;5.95;65.91;100390.04;1753157;81;21006;-76
2021/10/30 05:37:30;;;;;;;25.05;16.62;;;;;;;5.86;66.00;100391.38;1732544;82;21028;-76
2021/10/30 05:39:56;;;;;;;27.67;16.67;;;;;;;5.74;66.08;100388.48;1740530;81;21020;-76
2021/10/30 05:42:22;;;;;;;37.60;18.73;;;;;;;5.60;66.19;100388.41;1732841;82;21027;-76
2021/10/30 05:44:48;;;;;;;29.48;17.40;;;;;;;5.49;66.30;100394.66;1735841;81;21122;-76
2021/10/30 05:47:14;;;;;;;29.67;19.77;;;;;;;5.41;66.40;100404.27;1705393;84;21040;-75
2021/10/30 05:49:42;;;;;;;26.60;16.37;;;;;;;5.35;66.51;100403.47;1700206;84;21558;-75
2021/10/30 05:52:09;;;;;;;28.83;18.40;;;;;;;5.30;66.61;100411.83;1687495;83;21066;-75
2021/10/30 05:54:35;;;;;;;39.90;28.23;;;;;;;5.24;66.75;100414.19;1700770;84;21093;-75
2021/10/30 05:57:02;;;;;;;46.13;28.83;;;;;;;5.16;66.86;100417.98;1700810;84;21408;-76
2021/10/30 05:59:28;;;;;;;49.45;29.65;;;;;;;5.14;66.96;100414.14;1724147;82;21864;-77
2021/10/30 06:01:54;;;;;;;37.42;22.25;;;;;;;5.11;67.08;100419.70;1710114;82;21130;-77
2021/10/30 06:04:22;;;;;;;42.67;22.55;;;;;;;5.00;67.17;100418.48;1703749;84;32552;-77
2021/10/30 06:06:48;;;;;;;38.80;20.30;;;;;;;4.89;67.30;100423.88;1735140;82;21055;-77
2021/10/30 06:09:14;;;;;;;42.78;21.80;;;;;;;4.79;67.40;100416.37;1711357;83;21288;-77
2021/10/30 06:11:41;;;;;;;33.10;19.15;;;;;;;4.74;67.51;100421.23;1686158;84;21854;-77
2021/10/30 06:14:09;;;;;;;34.05;19.02;;;;;;;4.70;67.63;100421.14;1716686;83;20998;-77
2021/10/30 06:16:35;;;;;;;39.95;20.55;;;;;;;4.70;67.74;100410.58;1719193;82;21044;-77
2021/10/30 06:19:02;;;;;;;38.73;19.98;;;;;;;4.65;67.85;100414.09;1721528;82;21096;-77
2021/10/30 06:21:28;;;;;;;29.95;17.73;;;;;;;4.66;67.96;100406.05;1721320;83;21040;-79
2021/10/30 06:23:58;;;;;;;26.57;16.05;;;;;;;4.87;68.08;100409.47;1721469;83;21148;-77
2021/10/30 06:26:22;;;;;;;78.00;18.40;;;;;;;5.42;68.03;100410.73;1721332;82;21048;-77
2021/10/30 06:28:49;;;;;;;29.15;15.98;;;;;;;5.71;67.88;100409.92;1713422;82;21029;-78
2021/10/30 06:31:15;;;;;;;25.00;16.37;;;;;;;5.88;67.89;100414.55;1712862;82;21565;-78
2021/10/30 06:33:41;;;;;;;28.87;17.10;;;;;;;6.11;67.95;100408.01;1711128;83;21507;-78
2021/10/30 06:36:08;;;;;;;31.10;18.98;;;;;;;6.33;68.01;100399.73;1710036;82;21133;-78
2021/10/30 06:38:34;;;;;;;35.45;19.85;;;;;;;6.58;68.07;100396.95;1711033;83;21042;-78
2021/10/30 06:41:02;;;;;;;29.52;16.62;;;;;;;6.78;68.09;100391.11;1711078;83;21110;-78
2021/10/30 06:43:28;;;;;;;24.98;14.85;;;;;;;6.96;68.08;100393.33;1711266;83;21073;-78
2021/10/30 06:45:54;;;;;;;24.43;14.63;;;;;;;7.15;68.07;100399.84;1712346;83;21387;-78
2021/10/30 06:48:21;;;;;;;30.35;18.00;;;;;;;7.35;68.03;100386.80;1717989;82;21169;-78
2021/10/30 06:50:47;;;;;;;23.20;14.70;;;;;;;7.53;67.96;100381.02;1719387;83;21535;-78
2021/10/30 06:53:13;;;;;;;23.73;14.85;;;;;;;7.69;67.88;100379.52;1720503;83;21048;-78
2021/10/30 06:55:41;;;;;;;26.97;16.42;;;;;;;7.82;67.78;100385.27;1719451;83;21041;-78
2021/10/30 06:58:07;;;;;;;28.47;15.05;;;;;;;7.96;67.67;100390.05;1720414;83;21071;-78
2021/10/30 07:00:33;;;;;;;20.62;14.58;;;;;;;8.12;67.56;100390.19;1720401;83;21529;-78
2021/10/30 07:02:59;;;;;;;22.95;14.65;;;;;;;8.25;67.45;100385.30;1720197;83;21036;-78
2021/10/30 07:05:26;;;;;;;30.92;16.17;;;;;;;8.37;67.30;100382.74;1727072;82;21045;-77
2021/10/30 07:07:52;;;;;;;27.48;15.63;;;;;;;8.47;67.14;100380.84;1720358;83;21617;-78
2021/10/30 07:10:18;;;;;;;23.98;15.40;;;;;;;8.56;67.00;100379.05;1720458;83;21056;-78
2021/10/30 07:12:44;;;;;;;21.48;14.00;;;;;;;8.70;66.82;100378.95;1720718;83;21965;-78
2021/10/30 07:15:12;;;;;;;28.17;15.30;;;;;;;8.81;66.69;100381.34;1707379;83;21067;-77
2021/10/30 07:17:39;;;;;;;22.60;14.53;;;;;;;8.90;66.49;100376.42;1719472;83;21017;-78
2021/10/30 07:20:06;;;;;;;24.35;14.68;;;;;;;9.00;66.32;100375.30;1720019;83;21571;-78
2021/10/30 07:22:45;;;;;;;25.15;14.53;;;;;;;9.14;66.14;100376.50;1720705;83;21092;-78
2021/10/30 07:25:11;;;;;;;25.12;14.55;;;;;;;9.29;65.99;100377.53;1720056;83;21126;-78
2021/10/30 07:27:37;;;;;;;22.67;14.18;;;;;;;9.38;65.77;100377.06;1719664;82;21072;-78
2021/10/30 07:30:05;;;;;;;27.98;15.13;;;;;;;9.45;65.60;100375.42;1715480;82;21558;-78
2021/10/30 07:32:32;;;;;;;25.75;14.07;;;;;;;9.46;65.37;100377.90;1691188;82;21051;-79
2021/10/30 07:34:58;;;;;;;25.27;16.10;;;;;;;9.53;65.19;100378.91;1720934;82;21032;-78
2021/10/30 07:37:24;;;;;;;27.42;16.02;;;;;;;9.62;65.00;100373.61;1729007;82;21811;-79
2021/10/30 07:39:51;;;;;;;29.37;17.05;;;;;;;9.67;64.82;100365.98;1717009;82;21044;-79
2021/10/30 07:42:18;;;;;;;31.62;17.42;;;;;;;9.75;64.64;100371.29;1716297;82;21048;-78
2021/10/30 07:44:44;;;;;;;26.45;18.17;;;;;;;9.80;64.45;100368.97;1724484;82;21500;-79
2021/10/30 07:47:11;;;;;;;31.12;19.98;;;;;;;9.85;64.27;100365.33;1719661;82;21032;-79
2021/10/30 07:49:37;;;;;;;32.65;19.95;;;;;;;9.91;64.09;100356.67;1723975;82;21604;-78
2021/10/30 07:52:05;;;;;;;33.08;18.65;;;;;;;9.95;63.92;100354.00;1722397;82;21021;-78
2021/10/30 07:54:32;;;;;;;36.90;19.35;;;;;;;9.99;63.72;100351.34;1724925;82;21001;-81
2021/10/30 07:56:58;;;;;;;41.37;19.27;;;;;;;10.01;63.50;100346.17;1706980;82;21527;-81
2021/10/30 07:59:24;;;;;;;33.63;17.65;;;;;;;10.11;63.38;100343.82;1721350;82;21558;-82
2021/10/30 08:01:51;;;;;;;27.87;17.40;;;;;;;10.19;63.24;100346.02;1717938;82;21116;-82
2021/10/30 08:04:17;;;;;;;29.18;16.73;;;;;;;10.28;63.08;100348.99;1722219;82;21061;-82
2021/10/30 08:06:44;;;;;;;32.85;17.07;;;;;;;10.36;62.93;100341.48;1715115;82;21038;-82
2021/10/30 08:09:10;;;;;;;24.25;15.43;;;;;;;10.40;62.73;100335.66;1714163;82;21085;-82
2021/10/30 08:11:37;;;;;;;26.82;14.90;;;;;;;10.47;62.53;100331.80;1703433;82;21537;-81
2021/10/30 08:14:03;;;;;;;25.45;14.95;;;;;;;10.58;62.37;100330.60;1710003;82;21882;-82
2021/10/30 08:16:30;;;;;;;21.27;14.87;;;;;;;10.67;62.19;100337.56;1714798;82;21010;-81
2021/10/30 08:18:57;;;;;;;23.18;13.88;;;;;;;10.75;61.98;100334.38;1716705;82;21024;-81
2021/10/30 08:21:23;;;;;;;23.90;14.78;;;;;;;10.85;61.79;100325.66;1715069;82;21031;-81
2021/10/30 08:23:49;;;;;;;22.80;13.53;;;;;;;10.93;61.56;100324.30;1734379;82;21000;-80
2021/10/30 08:26:17;;;;;;;32.58;14.87;;;;;;;11.06;61.42;100325.56;1711809;82;21921;-81
2021/10/30 08:28:44;;;;;;;24.43;14.47;;;;;;;11.17;61.25;100319.83;1711454;82;21069;-81
2021/10/30 08:31:10;;;;;;;24.90;14.95;;;;;;;11.24;60.99;100313.62;1717205;82;21521;-80
2021/10/30 08:33:36;;;;;;;38.70;16.05;;;;;;;11.29;60.75;100313.94;1710587;82;21048;-81
2021/10/30 08:36:03;;;;;;;45.92;16.27;;;;;;;11.35;60.59;100302.54;1714423;82;21058;-81
2021/10/30 08:38:29;;;;;;;32.05;15.10;;;;;;;11.42;60.39;100308.83;1717025;82;21195;-81
2021/10/30 08:41:00;;;;;;;36.48;15.10;;;;;;;11.48;60.16;100315.29;1712978;82;21525;-81
2021/10/30 08:43:27;;;;;;;36.50;16.62;;;;;;;11.57;59.98;100314.23;1709889;82;21031;-80
2021/10/30 08:45:55;;;;;;;45.25;17.60;;;;;;;11.65;59.84;100313.32;1716404;82;21095;-81
2021/10/30 08:48:21;;;;;;;25.35;13.30;;;;;;;11.73;59.73;100310.63;1720074;82;21029;-80
2021/10/30 08:50:50;;;;;;;43.40;16.27;;;;;;;11.79;59.64;100304.05;1711390;82;21156;-81
2021/10/30 08:53:16;;;;;;;32.38;15.38;;;;;;;11.84;59.44;100303.02;1702800;82;21061;-81
2021/10/30 08:55:42;;;;;;;24.95;13.68;;;;;;;11.86;59.23;100294.80;1713955;82;20993;-82
2021/10/30 08:58:13;;;;;;;22.67;13.88;;;;;;;11.89;59.09;100295.81;1728802;82;21570;-81
2021/10/30 09:00:42;;;;;;;27.35;14.38;;;;;;;11.92;58.95;100291.44;1713652;82;21123;-81
2021/10/30 09:03:10;;;;;;;52.88;31.77;;;;;;;11.96;58.84;100282.05;1721934;82;21121;-81
2021/10/30 09:05:36;;;;;;;27.02;16.12;;;;;;;12.00;58.70;100290.00;1727695;82;21053;-81
2021/10/30 09:08:05;;;;;;;30.62;15.98;;;;;;;12.07;58.57;100284.78;1722117;82;21029;-81
2021/10/30 09:10:41;;;;;;;52.50;29.50;;;;;;;12.12;58.43;100285.05;1711973;82;21505;-81
2021/10/30 09:13:10;;;;;;;205.52;141.30;;;;;;;12.19;58.32;100276.12;1717308;82;21022;-81
2021/10/30 09:15:41;;;;;;;29.00;17.20;;;;;;;12.25;58.19;100266.02;1713635;82;21092;-81
2021/10/30 09:18:35;;;;;;;36.80;26.97;;;;;;;12.34;58.11;100264.94;1716961;82;21035;-82
2021/10/30 09:21:13;;;;;;;29.52;20.43;;;;;;;12.41;58.06;100260.50;1716702;82;21009;-81
2021/10/30 09:23:48;;;;;;;26.35;16.12;;;;;;;12.51;57.92;100252.19;1713711;82;21048;-81
2021/10/30 09:26:28;;;;;;;23.27;15.53;;;;;;;12.58;57.71;100248.27;1723630;82;21052;-81
2021/10/30 09:29:07;;;;;;;26.95;16.10;;;;;;;12.59;57.48;100240.06;1718658;82;21143;-81
2021/10/30 09:31:33;;;;;;;26.00;15.08;;;;;;;12.63;57.28;100233.83;1714231;82;21022;-82
2021/10/30 09:34:05;;;;;;;28.40;15.58;;;;;;;12.72;57.15;100241.55;1722818;82;21052;-81
2021/10/30 09:36:37;;;;;;;33.73;16.12;;;;;;;12.78;56.96;100233.27;1711601;82;21021;-82
2021/10/30 09:39:08;;;;;;;22.02;14.07;;;;;;;12.88;56.86;100224.42;1714338;82;21025;-82
2021/10/30 09:41:41;;;;;;;19.35;13.38;;;;;;;13.00;56.70;100218.91;1708111;82;21139;-82
2021/10/30 09:44:23;;;;;;;21.25;12.63;;;;;;;13.13;56.59;100220.91;1720602;82;21037;-82
2021/10/30 09:46:54;;;;;;;17.77;12.43;;;;;;;13.25;56.41;100214.88;1715587;82;20999;-82
2021/10/30 09:49:25;;;;;;;18.90;12.13;;;;;;;13.30;56.24;100204.94;1715397;82;21008;-82
2021/10/30 09:51:57;;;;;;;21.73;12.23;;;;;;;13.32;56.03;100197.53;1712094;82;21708;-81
2021/10/30 09:54:32;;;;;;;22.70;13.08;;;;;;;13.34;55.87;100203.00;1706382;82;21160;-80
2021/10/30 09:56:58;;;;;;;26.87;17.17;;;;;;;13.39;55.67;100199.25;1714322;82;21068;-81
2021/10/30 09:59:25;;;;;;;18.52;12.15;;;;;;;13.51;55.51;100201.70;1717730;82;21517;-81
2021/10/30 10:01:51;;;;;;;21.23;14.15;;;;;;;13.65;55.29;100198.61;1710986;82;21014;-81
2021/10/30 10:04:19;;;;;;;18.42;12.33;;;;;;;13.75;55.00;100192.94;1710539;82;21040;-81
2021/10/30 10:06:47;;;;;;;52.55;31.10;;;;;;;13.80;54.76;100198.52;1718845;82;21144;-81
2021/10/30 10:09:14;;;;;;;53.95;32.20;;;;;;;13.81;54.54;100192.98;1716254;82;21538;-81
2021/10/30 10:11:47;;;;;;;82.95;42.93;;;;;;;13.84;54.48;100186.39;1707607;82;21025;-81
2021/10/30 10:14:18;;;;;;;53.98;26.97;;;;;;;13.91;54.34;100192.63;1708280;82;21045;-81
2021/10/30 10:16:48;;;;;;;39.45;24.75;;;;;;;13.94;54.06;100186.86;1708323;82;21183;-82
2021/10/30 10:19:17;;;;;;;27.82;16.87;;;;;;;13.96;53.85;100188.85;1709553;82;21053;-82
2021/10/30 10:21:43;;;;;;;24.47;16.52;;;;;;;13.97;53.70;100183.78;1726737;82;21010;-81
2021/10/30 10:24:16;;;;;;;23.18;14.00;;;;;;;13.97;53.54;100185.13;1720645;82;21008;-82
2021/10/30 10:26:58;;;;;;;25.90;15.88;;;;;;;13.97;53.41;100181.94;1719518;82;21064;-82
2021/10/30 10:29:43;;;;;;;24.72;15.70;;;;;;;13.96;53.32;100180.81;1715964;82;21533;-82
2021/10/30 10:32:22;;;;;;;28.90;15.13;;;;;;;13.95;53.31;100181.83;1715661;83;21550;-81
2021/10/30 10:34:49;;;;;;;16.23;12.73;;;;;;;13.96;53.23;100176.28;1716568;82;20989;-81
2021/10/30 10:37:20;;;;;;;23.22;13.80;;;;;;;13.99;53.13;100173.70;1716839;83;21048;-81
2021/10/30 10:40:00;;;;;;;25.35;14.60;;;;;;;13.98;53.01;100176.06;1716802;83;21490;-81
2021/10/30 10:42:40;;;;;;;22.42;13.93;;;;;;;13.98;52.95;100172.05;1716998;83;21057;-81
2021/10/30 10:45:12;;;;;;;30.48;14.35;;;;;;;14.01;52.95;100172.48;1716824;83;21493;-81
2021/10/30 10:47:49;;;;;;;23.38;13.08;;;;;;;14.04;52.87;100166.42;1716686;83;21001;-81
2021/10/30 10:50:29;;;;;;;49.08;24.18;;;;;;;14.11;52.85;100157.36;1716166;83;21013;-81
2021/10/30 10:53:08;;;;;;;52.75;25.45;;;;;;;14.15;52.80;100155.94;1716879;83;20993;-81
2021/10/30 10:55:38;;;;;;;53.70;31.45;;;;;;;14.19;52.74;100157.20;1717107;83;21044;-81
2021/10/30 10:58:06;;;;;;;27.22;15.60;;;;;;;14.26;52.71;100148.67;1712971;83;25885;-81
2021/10/30 11:00:32;;;;;;;41.33;27.48;;;;;;;14.30;52.68;100141.89;1716853;83;21487;-81
2021/10/30 11:03:01;;;;;;;63.63;42.23;;;;;;;14.32;52.65;100134.45;1716966;83;21017;-81
2021/10/30 11:05:34;;;;;;;29.87;20.65;;;;;;;14.37;52.65;100130.70;1716665;83;21013;-81
2021/10/30 11:08:11;;;;;;;20.55;13.62;;;;;;;14.41;52.60;100133.30;1716890;83;21442;-81
2021/10/30 11:10:39;;;;;;;23.18;13.20;;;;;;;14.44;52.58;100134.74;1718669;83;21526;-82
2021/10/30 11:13:08;;;;;;;16.67;12.23;;;;;;;14.48;52.50;100125.27;1719436;83;21073;-82
2021/10/30 11:15:56;;;;;;;17.70;11.28;;;;;;;14.52;52.34;100123.00;1719587;83;21001;-82